Terminal Aerodrome Forecast
Issued by NWS Louisville, KY

Home | Current Version | Previous Version | Text Only | Print | Product List | Glossary On
Versions: 1 2 3 4 5 6 7 8 9 10 11 12 13 14 15 16 17 18
000
FTUS43 KLMK 282300
TAFSDF
TAF
KSDF 282327Z 2900/3006 15007KT P6SM BKN250
     FM290800 17010KT P6SM BKN250 WS018/21048KT
     FM291400 19012KT P6SM VCSH OVC050
     FM291600 23014G20KT P6SM VCSH BKN025=

USA.gov is the U.S. government's official web portal to all federal, state and local government web resources and services.